sensor_id;sensor_type;location;lat;lon;timestamp;pressure;altitude;pressure_sealevel;temperature;humidity
50702;BME280;36670;50.094;8.496;2023-04-05T00:01:30;101122.94;;;5.42;48.83
50702;BME280;36670;50.094;8.496;2023-04-05T00:03:56;101115.13;;;5.39;49.23
50702;BME280;36670;50.094;8.496;2023-04-05T00:06:23;101114.19;;;5.32;49.52
50702;BME280;36670;50.094;8.496;2023-04-05T00:11:22;101119.19;;;5.50;48.93
50702;BME280;36670;50.094;8.496;2023-04-05T00:13:48;101113.44;;;5.16;49.70
50702;BME280;36670;50.094;8.496;2023-04-05T00:16:17;101111.38;;;5.46;49.27
50702;BME280;36670;50.094;8.496;2023-04-05T00:18:43;101114.47;;;5.37;49.44
50702;BME280;36670;50.094;8.496;2023-04-05T00:21:20;101111.44;;;5.25;49.77
50702;BME280;36670;50.094;8.496;2023-04-05T00:23:48;101112.47;;;5.24;49.87
50702;BME280;36670;50.094;8.496;2023-04-05T00:26:15;101112.00;;;5.20;50.21
50702;BME280;36670;50.094;8.496;2023-04-05T00:28:41;101125.53;;;5.00;50.25
50702;BME280;36670;50.094;8.496;2023-04-05T00:31:06;101103.50;;;5.08;50.53
50702;BME280;36670;50.094;8.496;2023-04-05T00:33:31;101113.00;;;5.12;50.45
50702;BME280;36670;50.094;8.496;2023-04-05T00:35:57;101110.91;;;5.15;50.68
50702;BME280;36670;50.094;8.496;2023-04-05T00:38:22;101118.41;;;4.84;51.09
50702;BME280;36670;50.094;8.496;2023-04-05T00:40:47;101116.00;;;4.96;51.17
50702;BME280;36670;50.094;8.496;2023-04-05T00:43:13;101118.06;;;4.94;50.43
50702;BME280;36670;50.094;8.496;2023-04-05T00:45:38;101105.31;;;5.01;50.78
50702;BME280;36670;50.094;8.496;2023-04-05T00:48:04;101103.84;;;5.27;50.13
50702;BME280;36670;50.094;8.496;2023-04-05T00:50:30;101099.75;;;5.16;50.67
50702;BME280;36670;50.094;8.496;2023-04-05T00:52:56;101097.94;;;5.23;49.97
50702;BME280;36670;50.094;8.496;2023-04-05T00:55:22;101098.56;;;5.47;49.56
50702;BME280;36670;50.094;8.496;2023-04-05T00:57:48;101096.53;;;5.34;50.26
50702;BME280;36670;50.094;8.496;2023-04-05T01:00:14;101092.88;;;5.49;49.85
50702;BME280;36670;50.094;8.496;2023-04-05T01:02:44;101090.03;;;5.35;49.97
50702;BME280;36670;50.094;8.496;2023-04-05T01:05:29;101087.41;;;5.49;49.99
50702;BME280;36670;50.094;8.496;2023-04-05T01:07:58;101082.88;;;5.69;49.03
50702;BME280;36670;50.094;8.496;2023-04-05T01:10:34;101082.50;;;5.16;49.69
50702;BME280;36670;50.094;8.496;2023-04-05T01:13:02;101077.28;;;5.49;49.30
50702;BME280;36670;50.094;8.496;2023-04-05T01:15:28;101076.28;;;5.57;48.75
50702;BME280;36670;50.094;8.496;2023-04-05T01:17:53;101083.44;;;5.29;50.23
50702;BME280;36670;50.094;8.496;2023-04-05T01:20:21;101077.34;;;5.27;49.79
50702;BME280;36670;50.094;8.496;2023-04-05T01:25:48;101077.25;;;6.12;47.80
50702;BME280;36670;50.094;8.496;2023-04-05T01:31:09;101059.81;;;6.34;47.39
50702;BME280;36670;50.094;8.496;2023-04-05T01:36:42;101059.38;;;5.88;48.01
50702;BME280;36670;50.094;8.496;2023-04-05T01:39:11;101061.09;;;5.54;48.60
50702;BME280;36670;50.094;8.496;2023-04-05T01:41:38;101059.16;;;5.20;49.33
50702;BME280;36670;50.094;8.496;2023-04-05T01:44:04;101058.66;;;5.09;49.58
50702;BME280;36670;50.094;8.496;2023-04-05T01:46:30;101061.34;;;5.03;50.09
50702;BME280;36670;50.094;8.496;2023-04-05T01:48:55;101059.56;;;4.95;50.52
50702;BME280;36670;50.094;8.496;2023-04-05T01:51:21;101053.97;;;5.32;49.03
50702;BME280;36670;50.094;8.496;2023-04-05T01:53:46;101058.47;;;5.11;49.58
50702;BME280;36670;50.094;8.496;2023-04-05T01:56:11;101056.63;;;5.18;49.60
50702;BME280;36670;50.094;8.496;2023-04-05T01:58:37;101047.94;;;5.15;49.88
50702;BME280;36670;50.094;8.496;2023-04-05T02:01:02;101048.81;;;5.15;49.91
50702;BME280;36670;50.094;8.496;2023-04-05T02:03:28;101052.09;;;4.82;50.18
50702;BME280;36670;50.094;8.496;2023-04-05T02:05:53;101052.09;;;4.82;50.33
50702;BME280;36670;50.094;8.496;2023-04-05T02:08:20;101048.41;;;5.18;49.50
50702;BME280;36670;50.094;8.496;2023-04-05T02:10:45;101045.59;;;5.40;49.44
50702;BME280;36670;50.094;8.496;2023-04-05T02:13:11;101043.22;;;5.58;49.38
50702;BME280;36670;50.094;8.496;2023-04-05T02:15:38;101048.94;;;5.35;49.41
50702;BME280;36670;50.094;8.496;2023-04-05T02:18:03;101044.22;;;5.22;49.56
50702;BME280;36670;50.094;8.496;2023-04-05T02:20:29;101052.06;;;5.04;49.59
50702;BME280;36670;50.094;8.496;2023-04-05T02:22:54;101061.41;;;4.66;50.63
50702;BME280;36670;50.094;8.496;2023-04-05T02:25:20;101059.16;;;4.33;51.15
50702;BME280;36670;50.094;8.496;2023-04-05T02:27:45;101064.88;;;4.02;52.30
50702;BME280;36670;50.094;8.496;2023-04-05T02:30:11;101057.25;;;3.97;52.42
50702;BME280;36670;50.094;8.496;2023-04-05T02:32:41;101056.69;;;4.02;52.00
50702;BME280;36670;50.094;8.496;2023-04-05T02:35:08;101060.41;;;4.31;51.50
50702;BME280;36670;50.094;8.496;2023-04-05T02:37:34;101058.38;;;4.18;51.80
50702;BME280;36670;50.094;8.496;2023-04-05T02:40:13;101048.38;;;4.68;50.85
50702;BME280;36670;50.094;8.496;2023-04-05T02:42:56;101055.84;;;4.38;51.12
50702;BME280;36670;50.094;8.496;2023-04-05T02:45:21;101053.66;;;4.12;51.13
50702;BME280;36670;50.094;8.496;2023-04-05T02:47:49;101053.50;;;3.98;52.17
50702;BME280;36670;50.094;8.496;2023-04-05T02:50:14;101049.34;;;3.57;53.19
50702;BME280;36670;50.094;8.496;2023-04-05T02:52:47;101052.00;;;3.51;53.10
50702;BME280;36670;50.094;8.496;2023-04-05T02:55:13;101046.63;;;3.72;52.65
50702;BME280;36670;50.094;8.496;2023-04-05T02:57:38;101044.19;;;4.29;51.49
50702;BME280;36670;50.094;8.496;2023-04-05T03:00:04;101042.66;;;4.41;51.32
50702;BME280;36670;50.094;8.496;2023-04-05T03:02:32;101042.84;;;4.61;51.44
50702;BME280;36670;50.094;8.496;2023-04-05T03:04:57;101041.28;;;4.74;50.55
50702;BME280;36670;50.094;8.496;2023-04-05T03:07:26;101039.78;;;4.50;50.34
50702;BME280;36670;50.094;8.496;2023-04-05T03:09:55;101032.94;;;4.39;51.28
50702;BME280;36670;50.094;8.496;2023-04-05T03:12:21;101037.94;;;3.84;52.16
50702;BME280;36670;50.094;8.496;2023-04-05T03:14:46;101037.41;;;3.44;53.20
50702;BME280;36670;50.094;8.496;2023-04-05T03:17:11;101028.53;;;3.27;53.34
50702;BME280;36670;50.094;8.496;2023-04-05T03:19:37;101033.19;;;3.41;53.86
50702;BME280;36670;50.094;8.496;2023-04-05T03:22:02;101038.09;;;3.61;53.30
50702;BME280;36670;50.094;8.496;2023-04-05T03:24:28;101041.16;;;3.57;53.50
50702;BME280;36670;50.094;8.496;2023-04-05T03:26:54;101040.88;;;3.22;54.00
50702;BME280;36670;50.094;8.496;2023-04-05T03:29:19;101038.38;;;2.98;54.94
50702;BME280;36670;50.094;8.496;2023-04-05T03:31:44;101039.16;;;3.06;54.56
50702;BME280;36670;50.094;8.496;2023-04-05T03:34:10;101044.63;;;3.06;54.67
50702;BME280;36670;50.094;8.496;2023-04-05T03:36:35;101042.47;;;2.79;55.42
50702;BME280;36670;50.094;8.496;2023-04-05T03:39:10;101031.50;;;3.02;54.54
50702;BME280;36670;50.094;8.496;2023-04-05T03:41:36;101045.84;;;3.34;54.56
50702;BME280;36670;50.094;8.496;2023-04-05T03:44:02;101040.59;;;3.77;53.39
50702;BME280;36670;50.094;8.496;2023-04-05T03:46:27;101034.19;;;3.85;52.89
50702;BME280;36670;50.094;8.496;2023-04-05T03:48:53;101029.63;;;4.07;52.31
50702;BME280;36670;50.094;8.496;2023-04-05T03:51:18;101022.06;;;4.09;52.48
50702;BME280;36670;50.094;8.496;2023-04-05T03:53:44;101019.50;;;3.86;52.25
50702;BME280;36670;50.094;8.496;2023-04-05T03:56:10;101021.84;;;3.74;53.14
50702;BME280;36670;50.094;8.496;2023-04-05T03:58:38;101016.81;;;3.41;53.48
50702;BME280;36670;50.094;8.496;2023-04-05T04:01:04;101025.38;;;3.68;53.12
50702;BME280;36670;50.094;8.496;2023-04-05T04:03:30;101024.09;;;3.25;53.33
50702;BME280;36670;50.094;8.496;2023-04-05T04:05:56;101021.50;;;3.62;52.93
50702;BME280;36670;50.094;8.496;2023-04-05T04:08:21;101022.16;;;3.79;52.67
50702;BME280;36670;50.094;8.496;2023-04-05T04:10:47;101021.06;;;3.95;52.13
50702;BME280;36670;50.094;8.496;2023-04-05T04:13:13;101020.44;;;3.93;52.26
50702;BME280;36670;50.094;8.496;2023-04-05T04:15:38;101022.13;;;3.19;53.33
50702;BME280;36670;50.094;8.496;2023-04-05T04:18:03;101021.97;;;2.83;54.88
50702;BME280;36670;50.094;8.496;2023-04-05T04:20:28;101022.31;;;2.80;55.07
50702;BME280;36670;50.094;8.496;2023-04-05T04:22:56;101026.75;;;2.81;55.33
50702;BME280;36670;50.094;8.496;2023-04-05T04:25:21;101025.28;;;2.55;55.45
50702;BME280;36670;50.094;8.496;2023-04-05T04:27:47;101031.00;;;2.60;55.78
50702;BME280;36670;50.094;8.496;2023-04-05T04:30:14;101023.06;;;2.73;54.89
50702;BME280;36670;50.094;8.496;2023-04-05T04:32:41;101021.97;;;2.83;55.73
50702;BME280;36670;50.094;8.496;2023-04-05T04:35:16;101024.91;;;2.81;55.25
50702;BME280;36670;50.094;8.496;2023-04-05T04:37:45;101018.03;;;2.85;55.86
50702;BME280;36670;50.094;8.496;2023-04-05T04:40:14;101024.72;;;2.83;55.42
50702;BME280;36670;50.094;8.496;2023-04-05T04:42:44;101017.31;;;2.68;55.62
50702;BME280;36670;50.094;8.496;2023-04-05T04:45:13;101018.28;;;3.14;54.12
50702;BME280;36670;50.094;8.496;2023-04-05T04:47:46;101012.19;;;3.41;53.28
50702;BME280;36670;50.094;8.496;2023-04-05T04:50:12;101022.34;;;3.33;53.35
50702;BME280;36670;50.094;8.496;2023-04-05T04:52:39;101022.44;;;3.39;53.72
50702;BME280;36670;50.094;8.496;2023-04-05T04:55:06;101020.66;;;3.32;53.60
50702;BME280;36670;50.094;8.496;2023-04-05T04:57:32;101018.66;;;3.11;54.53
50702;BME280;36670;50.094;8.496;2023-04-05T04:59:57;101019.91;;;2.85;54.39
50702;BME280;36670;50.094;8.496;2023-04-05T05:02:23;101017.16;;;2.47;55.82
50702;BME280;36670;50.094;8.496;2023-04-05T05:04:48;101019.88;;;3.08;54.46
50702;BME280;36670;50.094;8.496;2023-04-05T05:07:14;101017.44;;;3.13;54.26
50702;BME280;36670;50.094;8.496;2023-04-05T05:09:39;101029.47;;;3.34;53.96
50702;BME280;36670;50.094;8.496;2023-04-05T05:12:05;101027.59;;;3.49;52.94
50702;BME280;36670;50.094;8.496;2023-04-05T05:14:30;101033.84;;;3.58;53.42
50702;BME280;36670;50.094;8.496;2023-04-05T05:16:55;101030.06;;;3.29;53.06
50702;BME280;36670;50.094;8.496;2023-04-05T05:19:23;101037.31;;;3.52;53.75
50702;BME280;36670;50.094;8.496;2023-04-05T05:21:48;101028.53;;;3.71;53.00
50702;BME280;36670;50.094;8.496;2023-04-05T05:24:14;101032.88;;;3.66;52.82
50702;BME280;36670;50.094;8.496;2023-04-05T05:26:39;101033.47;;;3.61;53.52
50702;BME280;36670;50.094;8.496;2023-04-05T05:29:05;101030.97;;;3.81;52.73
50702;BME280;36670;50.094;8.496;2023-04-05T05:31:30;101027.28;;;4.04;52.07
50702;BME280;36670;50.094;8.496;2023-04-05T05:33:57;101029.69;;;3.32;53.99
50702;BME280;36670;50.094;8.496;2023-04-05T05:36:22;101033.97;;;3.12;54.30
50702;BME280;36670;50.094;8.496;2023-04-05T05:38:47;101039.06;;;3.15;54.23
50702;BME280;36670;50.094;8.496;2023-04-05T05:41:13;101032.59;;;3.31;53.83
50702;BME280;36670;50.094;8.496;2023-04-05T05:43:38;101041.25;;;3.49;54.25
50702;BME280;36670;50.094;8.496;2023-04-05T05:46:03;101039.13;;;3.59;53.93
50702;BME280;36670;50.094;8.496;2023-04-05T05:48:30;101039.56;;;3.63;53.62
50702;BME280;36670;50.094;8.496;2023-04-05T05:50:57;101029.94;;;3.82;53.17
50702;BME280;36670;50.094;8.496;2023-04-05T05:53:25;101023.31;;;4.43;53.47
50702;BME280;36670;50.094;8.496;2023-04-05T05:55:50;101024.38;;;5.13;52.55
50702;BME280;36670;50.094;8.496;2023-04-05T05:58:16;101026.44;;;5.75;50.50
50702;BME280;36670;50.094;8.496;2023-04-05T06:00:41;101021.00;;;6.37;49.32
50702;BME280;36670;50.094;8.496;2023-04-05T06:03:06;101030.16;;;6.91;48.77
50702;BME280;36670;50.094;8.496;2023-04-05T06:05:32;101031.22;;;7.37;47.82
50702;BME280;36670;50.094;8.496;2023-04-05T06:07:57;101030.50;;;8.27;46.56
50702;BME280;36670;50.094;8.496;2023-04-05T06:10:22;101024.63;;;8.87;44.61
50702;BME280;36670;50.094;8.496;2023-04-05T06:12:49;101018.59;;;9.47;43.52
50702;BME280;36670;50.094;8.496;2023-04-05T06:15:15;101020.88;;;10.24;41.86
50702;BME280;36670;50.094;8.496;2023-04-05T06:17:40;101020.13;;;10.78;39.61
50702;BME280;36670;50.094;8.496;2023-04-05T06:20:08;101027.41;;;10.61;39.52
50702;BME280;36670;50.094;8.496;2023-04-05T06:22:35;101021.63;;;11.04;39.14
50702;BME280;36670;50.094;8.496;2023-04-05T06:25:01;101028.47;;;11.49;38.48
50702;BME280;36670;50.094;8.496;2023-04-05T06:27:26;101023.56;;;11.39;37.79
50702;BME280;36670;50.094;8.496;2023-04-05T06:29:51;101016.13;;;11.64;37.81
50702;BME280;36670;50.094;8.496;2023-04-05T06:32:19;101019.28;;;12.49;37.52
50702;BME280;36670;50.094;8.496;2023-04-05T06:34:45;101017.88;;;12.80;35.69
50702;BME280;36670;50.094;8.496;2023-04-05T06:37:13;101010.34;;;12.92;34.89
50702;BME280;36670;50.094;8.496;2023-04-05T06:39:38;101014.19;;;12.45;36.41
50702;BME280;36670;50.094;8.496;2023-04-05T06:42:04;101014.53;;;12.78;36.30
50702;BME280;36670;50.094;8.496;2023-04-05T06:44:29;101014.38;;;12.39;35.64
50702;BME280;36670;50.094;8.496;2023-04-05T06:46:54;101012.09;;;11.95;36.54
50702;BME280;36670;50.094;8.496;2023-04-05T06:49:20;101016.06;;;11.99;35.34
50702;BME280;36670;50.094;8.496;2023-04-05T06:51:45;101008.88;;;11.63;35.76
50702;BME280;36670;50.094;8.496;2023-04-05T06:54:10;101008.91;;;11.15;36.56
50702;BME280;36670;50.094;8.496;2023-04-05T06:56:36;101018.91;;;10.13;37.42
50702;BME280;36670;50.094;8.496;2023-04-05T06:59:01;101017.81;;;9.59;38.79
50702;BME280;36670;50.094;8.496;2023-04-05T07:01:27;101020.16;;;8.93;39.88
50702;BME280;36670;50.094;8.496;2023-04-05T07:03:53;101032.25;;;8.14;40.43
50702;BME280;36670;50.094;8.496;2023-04-05T07:06:18;101025.94;;;7.22;42.14
50702;BME280;36670;50.094;8.496;2023-04-05T07:08:43;101028.84;;;7.47;41.88
50702;BME280;36670;50.094;8.496;2023-04-05T07:11:09;101022.13;;;7.09;42.84
50702;BME280;36670;50.094;8.496;2023-04-05T07:13:37;101019.19;;;6.97;42.89
50702;BME280;36670;50.094;8.496;2023-04-05T07:16:02;101020.47;;;6.95;43.63
50702;BME280;36670;50.094;8.496;2023-04-05T07:18:27;101018.13;;;6.78;43.92
50702;BME280;36670;50.094;8.496;2023-04-05T07:20:55;101011.16;;;6.76;42.57
50702;BME280;36670;50.094;8.496;2023-04-05T07:23:24;101015.56;;;6.70;43.76
50702;BME280;36670;50.094;8.496;2023-04-05T07:25:50;101020.44;;;6.75;42.54
50702;BME280;36670;50.094;8.496;2023-04-05T07:28:15;101012.84;;;6.83;42.49
50702;BME280;36670;50.094;8.496;2023-04-05T07:30:40;101018.53;;;6.95;42.41
50702;BME280;36670;50.094;8.496;2023-04-05T07:33:06;101019.81;;;6.93;42.51
50702;BME280;36670;50.094;8.496;2023-04-05T07:35:31;101009.47;;;7.02;43.18
50702;BME280;36670;50.094;8.496;2023-04-05T07:37:56;101010.66;;;7.46;42.83
50702;BME280;36670;50.094;8.496;2023-04-05T07:40:22;101017.41;;;7.57;41.87
50702;BME280;36670;50.094;8.496;2023-04-05T07:42:47;101009.44;;;7.22;42.11
50702;BME280;36670;50.094;8.496;2023-04-05T07:45:12;101007.31;;;7.30;42.11
50702;BME280;36670;50.094;8.496;2023-04-05T07:47:37;101017.25;;;7.51;41.67
50702;BME280;36670;50.094;8.496;2023-04-05T07:50:03;101009.66;;;7.33;42.27
50702;BME280;36670;50.094;8.496;2023-04-05T07:52:29;101009.88;;;7.25;42.93
50702;BME280;36670;50.094;8.496;2023-04-05T07:54:54;101008.94;;;7.65;42.27
50702;BME280;36670;50.094;8.496;2023-04-05T07:57:20;101013.41;;;7.59;42.32
50702;BME280;36670;50.094;8.496;2023-04-05T07:59:47;101008.34;;;8.08;42.18
50702;BME280;36670;50.094;8.496;2023-04-05T08:02:15;101012.41;;;8.44;42.20
50702;BME280;36670;50.094;8.496;2023-04-05T08:04:40;101009.41;;;8.52;41.79
50702;BME280;36670;50.094;8.496;2023-04-05T08:07:06;101011.75;;;8.81;41.30
50702;BME280;36670;50.094;8.496;2023-04-05T08:09:31;101008.13;;;9.31;41.25
50702;BME280;36670;50.094;8.496;2023-04-05T08:11:56;101010.22;;;8.85;41.19
50702;BME280;36670;50.094;8.496;2023-04-05T08:14:22;101004.22;;;8.95;40.59
50702;BME280;36670;50.094;8.496;2023-04-05T08:16:47;101008.91;;;8.94;40.32
50702;BME280;36670;50.094;8.496;2023-04-05T08:19:14;101001.22;;;8.71;39.58
50702;BME280;36670;50.094;8.496;2023-04-05T08:21:40;101009.84;;;8.04;39.43
50702;BME280;36670;50.094;8.496;2023-04-05T08:24:05;100998.34;;;7.75;40.72
50702;BME280;36670;50.094;8.496;2023-04-05T08:26:30;100999.75;;;8.36;40.83
50702;BME280;36670;50.094;8.496;2023-04-05T08:28:56;100998.88;;;8.75;40.34
50702;BME280;36670;50.094;8.496;2023-04-05T08:31:21;101002.66;;;8.42;40.01
50702;BME280;36670;50.094;8.496;2023-04-05T08:33:46;100991.41;;;8.82;40.40
50702;BME280;36670;50.094;8.496;2023-04-05T08:36:11;101001.19;;;8.46;39.29
50702;BME280;36670;50.094;8.496;2023-04-05T08:38:37;100993.59;;;8.73;39.55
50702;BME280;36670;50.094;8.496;2023-04-05T08:41:22;100992.09;;;9.02;39.98
50702;BME280;36670;50.094;8.496;2023-04-05T08:43:58;100993.75;;;9.29;39.32
50702;BME280;36670;50.094;8.496;2023-04-05T08:46:35;100994.09;;;9.14;39.57
50702;BME280;36670;50.094;8.496;2023-04-05T08:49:05;100987.78;;;9.50;38.47
50702;BME280;36670;50.094;8.496;2023-04-05T08:51:36;100984.28;;;9.80;38.45
50702;BME280;36670;50.094;8.496;2023-04-05T08:54:03;100990.63;;;10.30;36.70
50702;BME280;36670;50.094;8.496;2023-04-05T08:56:33;100986.78;;;10.49;37.66
50702;BME280;36670;50.094;8.496;2023-04-05T09:01:30;100979.22;;;9.96;36.22
50702;BME280;36670;50.094;8.496;2023-04-05T09:03:59;100975.94;;;9.68;36.41
50702;BME280;36670;50.094;8.496;2023-04-05T09:06:25;100991.50;;;9.81;35.79
50702;BME280;36670;50.094;8.496;2023-04-05T09:08:57;100988.38;;;9.59;35.33
50702;BME280;36670;50.094;8.496;2023-04-05T09:11:24;100977.53;;;9.39;35.92
50702;BME280;36670;50.094;8.496;2023-04-05T09:13:50;100971.13;;;9.45;35.39
50702;BME280;36670;50.094;8.496;2023-04-05T09:16:16;100971.72;;;9.47;34.78
50702;BME280;36670;50.094;8.496;2023-04-05T09:18:43;100975.66;;;9.58;35.79
50702;BME280;36670;50.094;8.496;2023-04-05T09:21:08;100970.19;;;9.70;35.35
50702;BME280;36670;50.094;8.496;2023-04-05T09:23:34;100973.41;;;9.67;36.33
50702;BME280;36670;50.094;8.496;2023-04-05T09:25:59;100973.97;;;10.06;34.35
50702;BME280;36670;50.094;8.496;2023-04-05T09:28:40;100971.94;;;9.64;34.72
50702;BME280;36670;50.094;8.496;2023-04-05T09:31:09;100961.78;;;9.65;34.61
50702;BME280;36670;50.094;8.496;2023-04-05T09:33:34;100967.28;;;9.28;35.40
50702;BME280;36670;50.094;8.496;2023-04-05T09:36:01;100969.81;;;9.66;35.43
50702;BME280;36670;50.094;8.496;2023-04-05T09:38:43;100973.78;;;9.52;34.97
50702;BME280;36670;50.094;8.496;2023-04-05T09:41:08;100965.78;;;9.69;35.94
50702;BME280;36670;50.094;8.496;2023-04-05T09:43:36;100973.34;;;9.73;34.79
50702;BME280;36670;50.094;8.496;2023-04-05T09:46:02;100964.84;;;9.56;34.02
50702;BME280;36670;50.094;8.496;2023-04-05T09:51:16;100972.78;;;9.83;34.42
50702;BME280;36670;50.094;8.496;2023-04-05T09:53:58;100969.56;;;10.05;34.64
50702;BME280;36670;50.094;8.496;2023-04-05T09:56:25;100962.94;;;10.06;33.21
50702;BME280;36670;50.094;8.496;2023-04-05T09:58:51;100970.13;;;9.77;34.64
50702;BME280;36670;50.094;8.496;2023-04-05T10:01:18;100962.63;;;10.14;33.99
50702;BME280;36670;50.094;8.496;2023-04-05T10:03:49;100963.06;;;9.99;34.46
50702;BME280;36670;50.094;8.496;2023-04-05T10:06:15;100957.19;;;10.07;33.94
50702;BME280;36670;50.094;8.496;2023-04-05T10:08:41;100952.09;;;10.41;33.34
50702;BME280;36670;50.094;8.496;2023-04-05T10:11:07;100949.00;;;10.62;33.13
50702;BME280;36670;50.094;8.496;2023-04-05T10:13:33;100955.06;;;11.30;32.80
50702;BME280;36670;50.094;8.496;2023-04-05T10:16:00;100937.53;;;11.12;33.04
50702;BME280;36670;50.094;8.496;2023-04-05T10:18:39;100942.44;;;11.46;32.58
50702;BME280;36670;50.094;8.496;2023-04-05T10:21:10;100946.03;;;11.46;32.72
50702;BME280;36670;50.094;8.496;2023-04-05T10:23:37;100944.56;;;11.55;32.54
50702;BME280;36670;50.094;8.496;2023-04-05T10:26:15;100934.97;;;11.34;31.23
50702;BME280;36670;50.094;8.496;2023-04-05T10:28:46;100937.50;;;11.00;32.42
50702;BME280;36670;50.094;8.496;2023-04-05T10:31:32;100930.50;;;11.45;30.15
50702;BME280;36670;50.094;8.496;2023-04-05T10:34:07;100929.22;;;11.36;32.09
50702;BME280;36670;50.094;8.496;2023-04-05T10:37:00;100929.22;;;11.36;30.74
50702;BME280;36670;50.094;8.496;2023-04-05T10:39:39;100928.28;;;11.06;31.98
50702;BME280;36670;50.094;8.496;2023-04-05T10:42:30;100929.59;;;11.16;31.68
50702;BME280;36670;50.094;8.496;2023-04-05T10:45:01;100930.63;;;11.50;31.49
50702;BME280;36670;50.094;8.496;2023-04-05T10:47:30;100921.19;;;11.75;31.67
50702;BME280;36670;50.094;8.496;2023-04-05T10:49:59;100925.09;;;11.50;30.11
50702;BME280;36670;50.094;8.496;2023-04-05T10:52:27;100917.25;;;11.71;30.50
50702;BME280;36670;50.094;8.496;2023-04-05T10:54:54;100919.44;;;11.98;30.79
50702;BME280;36670;50.094;8.496;2023-04-05T10:57:21;100920.09;;;12.17;29.59
50702;BME280;36670;50.094;8.496;2023-04-05T10:59:47;100923.13;;;12.15;28.76
50702;BME280;36670;50.094;8.496;2023-04-05T11:02:13;100909.50;;;10.97;29.17
50702;BME280;36670;50.094;8.496;2023-04-05T11:04:40;100926.16;;;11.49;30.64
50702;BME280;36670;50.094;8.496;2023-04-05T11:07:16;100916.44;;;11.99;30.19
50702;BME280;36670;50.094;8.496;2023-04-05T11:09:58;100914.22;;;12.30;29.34
50702;BME280;36670;50.094;8.496;2023-04-05T11:15:28;100909.69;;;11.54;30.56
50702;BME280;36670;50.094;8.496;2023-04-05T11:20:50;100906.81;;;12.02;29.94
50702;BME280;36670;50.094;8.496;2023-04-05T11:23:20;100904.97;;;11.67;30.09
50702;BME280;36670;50.094;8.496;2023-04-05T11:26:02;100904.91;;;11.50;30.11
50702;BME280;36670;50.094;8.496;2023-04-05T11:28:30;100895.47;;;11.10;30.00
50702;BME280;36670;50.094;8.496;2023-04-05T11:31:13;100882.53;;;11.80;31.16
50702;BME280;36670;50.094;8.496;2023-04-05T11:36:11;100882.31;;;12.10;30.82
50702;BME280;36670;50.094;8.496;2023-04-05T11:38:37;100882.91;;;11.95;29.82
50702;BME280;36670;50.094;8.496;2023-04-05T11:41:16;100893.66;;;11.68;29.45
50702;BME280;36670;50.094;8.496;2023-04-05T11:43:42;100879.28;;;10.90;31.19
50702;BME280;36670;50.094;8.496;2023-04-05T11:46:08;100878.34;;;11.37;30.87
50702;BME280;36670;50.094;8.496;2023-04-05T11:48:33;100873.03;;;11.88;31.40
50702;BME280;36670;50.094;8.496;2023-04-05T11:51:06;100869.78;;;12.37;29.89
50702;BME280;36670;50.094;8.496;2023-04-05T11:53:31;100864.41;;;12.30;30.06
50702;BME280;36670;50.094;8.496;2023-04-05T11:56:08;100858.63;;;12.66;29.66
50702;BME280;36670;50.094;8.496;2023-04-05T11:58:34;100861.97;;;12.34;29.19
50702;BME280;36670;50.094;8.496;2023-04-05T12:01:02;100855.53;;;12.45;29.39
50702;BME280;36670;50.094;8.496;2023-04-05T12:03:28;100862.78;;;12.17;29.05
50702;BME280;36670;50.094;8.496;2023-04-05T12:05:55;100866.75;;;11.92;29.08
50702;BME280;36670;50.094;8.496;2023-04-05T12:08:22;100843.50;;;12.05;29.11
50702;BME280;36670;50.094;8.496;2023-04-05T12:10:58;100845.63;;;12.15;29.68
50702;BME280;36670;50.094;8.496;2023-04-05T12:13:27;100843.91;;;12.82;29.68
50702;BME280;36670;50.094;8.496;2023-04-05T12:15:53;100833.81;;;13.15;29.29
50702;BME280;36670;50.094;8.496;2023-04-05T12:18:18;100826.38;;;13.15;28.96
50702;BME280;36670;50.094;8.496;2023-04-05T12:20:44;100825.22;;;13.56;29.11
50702;BME280;36670;50.094;8.496;2023-04-05T12:23:10;100823.97;;;13.24;28.14
50702;BME280;36670;50.094;8.496;2023-04-05T12:25:35;100824.03;;;13.29;28.43
50702;BME280;36670;50.094;8.496;2023-04-05T12:28:04;100823.00;;;12.74;27.81
50702;BME280;36670;50.094;8.496;2023-04-05T12:30:31;100830.19;;;12.53;28.56
50702;BME280;36670;50.094;8.496;2023-04-05T12:33:06;100829.41;;;12.58;28.58
50702;BME280;36670;50.094;8.496;2023-04-05T12:35:35;100818.25;;;12.70;28.41
50702;BME280;36670;50.094;8.496;2023-04-05T12:38:02;100816.56;;;13.52;29.12
50702;BME280;36670;50.094;8.496;2023-04-05T12:40:27;100808.69;;;13.22;28.16
50702;BME280;36670;50.094;8.496;2023-04-05T12:43:06;100821.22;;;13.46;26.92
50702;BME280;36670;50.094;8.496;2023-04-05T12:45:32;100815.03;;;13.61;26.90
50702;BME280;36670;50.094;8.496;2023-04-05T12:48:14;100807.16;;;13.53;26.79
50702;BME280;36670;50.094;8.496;2023-04-05T12:50:45;100800.59;;;13.37;26.04
50702;BME280;36670;50.094;8.496;2023-04-05T12:53:18;100800.09;;;13.23;26.09
50702;BME280;36670;50.094;8.496;2023-04-05T12:55:51;100786.44;;;13.39;26.65
50702;BME280;36670;50.094;8.496;2023-04-05T12:58:22;100790.84;;;13.84;26.20
50702;BME280;36670;50.094;8.496;2023-04-05T13:00:48;100794.63;;;13.06;25.94
50702;BME280;36670;50.094;8.496;2023-04-05T13:03:20;100797.88;;;12.25;26.62
50702;BME280;36670;50.094;8.496;2023-04-05T13:05:46;100793.16;;;12.42;27.37
50702;BME280;36670;50.094;8.496;2023-04-05T13:08:13;100795.69;;;12.83;26.55
50702;BME280;36670;50.094;8.496;2023-04-05T13:10:38;100782.78;;;12.89;27.09
50702;BME280;36670;50.094;8.496;2023-04-05T13:13:03;100790.75;;;12.85;25.99
50702;BME280;36670;50.094;8.496;2023-04-05T13:15:29;100777.28;;;13.16;27.12
50702;BME280;36670;50.094;8.496;2023-04-05T13:17:54;100779.19;;;12.71;26.73
50702;BME280;36670;50.094;8.496;2023-04-05T13:20:20;100772.16;;;13.03;27.15
50702;BME280;36670;50.094;8.496;2023-04-05T13:22:46;100770.28;;;13.08;27.93
50702;BME280;36670;50.094;8.496;2023-04-05T13:25:12;100755.06;;;13.60;26.50